-> Other stations

1455

Speed(max): 5.9(8.1)knots
Direction:281° ( W)
Temperature: 26.2°C
Arrived: 2026-09-06 20:19:31 CEST

Past data:
hh:mmknots
Dir (°)
°C
20:17 5.4 8.1 WNW(285) 26.2
20:15 5.4 7.6 WNW(292) 26.2
20:13 4.9 5.9 WNW(285) 26.2
20:11 4.9 7 WNW(288) 26.2
20:09 5.4 7.6 WNW(282) 26.3
20:07 4.9 7 WNW(285) 26.3
20:05 4.9 7 WNW(289) 26.5
20:03 6.5 8.6 W(279) 26.6
20:01 5.9 8.6 WNW(288) 26.6
19:59 5.4 8.6 WNW(283) 26.6
19:57 4.9 7 WNW(282) 26.6
19:55 4.9 7 W(280) 26.6
19:53 5.4 7.6 WNW(282) 26.7
19:51 5.4 7.6 W(280) 26.7
15 min. averages:
hh:mmknots
Dir (°)
°C
20:15 5.4 8.6 WNW(285) 26.4
20:00 5.4 8.6 W(281) 26.7
19:45 4.9 8.1 W(274) 27.2
19:30 4.3 7 W(272) 27.9
19:15 3.8 5.4 W(274) 28.9
19:00 4.3 8.6 W(273) 29.8
18:45 5.4 9.2 W(279) 30.2
18:30 6.5 10.8 W(281) 30.8
18:15 6.5 10.3 WNW(287) 31.3
18:00 7.6 11.3 WNW(284) 31.9
17:45 4.3 10.3 NW(319) 33.4
17:30 1.1 2.7 ENE(69) 34.3
17:15 2.2 3.8 ENE(69) 32.6
17:00 2.2 4.3 ENE(62) 32.1
16:45 2.2 4.3 NE(40) 31.6
Stations at HR:
1455
-> Other regions

Desktop view
Data provided by Holfuy.
© Holfuy Weather 2026